createdAt,value
2019-02-04T00:01:58.478Z,99.90
2019-02-04T00:04:26.110Z,99.90
2019-02-04T00:06:53.748Z,99.90
2019-02-04T00:09:21.374Z,99.90
2019-02-04T00:11:49.476Z,99.90
2019-02-04T00:14:17.107Z,99.90
2019-02-04T00:16:44.735Z,99.90
2019-02-04T00:19:12.379Z,99.90
2019-02-04T00:24:07.385Z,99.90
2019-02-04T00:26:35.006Z,99.90
2019-02-04T00:31:30.414Z,99.90
2019-02-04T00:33:59.050Z,99.90
2019-02-04T00:36:26.674Z,99.90
2019-02-04T00:38:54.320Z,99.90
2019-02-04T00:41:21.980Z,99.90
2019-02-04T00:43:49.630Z,99.90
2019-02-04T00:46:17.323Z,99.90
2019-02-04T00:48:44.970Z,99.90
2019-02-04T00:51:12.612Z,99.90
2019-02-04T00:53:40.254Z,99.90
2019-02-04T00:56:07.957Z,99.90
2019-02-04T00:58:35.598Z,99.90
2019-02-04T01:01:03.402Z,99.90
2019-02-04T01:03:31.042Z,99.90
2019-02-04T01:05:58.698Z,99.90
2019-02-04T01:08:26.352Z,99.90
2019-02-04T01:10:54.055Z,99.90
2019-02-04T01:13:21.690Z,99.90
2019-02-04T01:15:49.346Z,99.90
2019-02-04T01:18:17.479Z,99.90
2019-02-04T01:20:45.122Z,99.90
2019-02-04T01:23:12.759Z,99.90
2019-02-04T01:25:40.407Z,99.90
2019-02-04T01:28:08.040Z,99.90
2019-02-04T01:30:35.691Z,99.90
2019-02-04T01:33:03.315Z,99.90
2019-02-04T01:35:30.978Z,99.90
2019-02-04T01:37:58.638Z,99.90
2019-02-04T01:40:26.759Z,99.90
2019-02-04T01:42:55.162Z,99.90
2019-02-04T01:45:23.088Z,99.90
2019-02-04T01:47:50.727Z,99.90
2019-02-04T01:50:19.710Z,99.90
2019-02-04T01:52:48.366Z,99.90
2019-02-04T01:55:16.006Z,99.90
2019-02-04T01:57:44.627Z,99.90
2019-02-04T02:00:13.805Z,99.90
2019-02-04T02:02:41.442Z,99.90
2019-02-04T02:05:09.287Z,99.90
2019-02-04T02:07:36.918Z,99.90
2019-02-04T02:10:06.094Z,99.90
2019-02-04T02:12:33.744Z,99.90
2019-02-04T02:15:01.374Z,99.90
2019-02-04T02:17:29.018Z,99.90
2019-02-04T02:19:56.650Z,99.90
2019-02-04T02:22:24.475Z,99.90
2019-02-04T02:24:52.111Z,99.90
2019-02-04T02:27:19.755Z,99.90
2019-02-04T02:29:47.388Z,99.90
2019-02-04T02:32:15.031Z,99.90
2019-02-04T02:34:42.666Z,99.90
2019-02-04T02:37:10.310Z,99.90
2019-02-04T02:39:37.954Z,99.90
2019-02-04T02:42:05.615Z,99.90
2019-02-04T02:44:33.254Z,99.90
2019-02-04T02:47:00.901Z,99.90
2019-02-04T02:49:28.530Z,99.90
2019-02-04T02:51:56.179Z,99.90
2019-02-04T02:54:23.810Z,99.90
2019-02-04T02:56:51.454Z,99.90
2019-02-04T02:59:19.100Z,99.90
2019-02-04T03:01:46.738Z,99.90
2019-02-04T03:04:14.370Z,99.90
2019-02-04T03:06:42.014Z,99.90
2019-02-04T03:09:09.646Z,99.90
2019-02-04T03:11:37.566Z,99.90
2019-02-04T03:14:05.201Z,99.90
2019-02-04T03:16:32.835Z,99.90
2019-02-04T03:19:00.478Z,99.90
2019-02-04T03:21:28.117Z,99.90
2019-02-04T03:23:55.764Z,99.90
2019-02-04T03:26:23.391Z,99.90
2019-02-04T03:28:51.138Z,99.90
2019-02-04T03:31:18.884Z,99.90
2019-02-04T03:33:46.539Z,99.90
2019-02-04T03:36:14.170Z,99.90
2019-02-04T03:38:41.850Z,99.90
2019-02-04T03:41:09.479Z,99.90
2019-02-04T03:43:39.128Z,99.90
2019-02-04T03:46:06.754Z,99.90
2019-02-04T03:48:34.395Z,99.90
2019-02-04T03:51:02.026Z,99.90
2019-02-04T03:53:29.686Z,99.90
2019-02-04T03:55:57.322Z,99.90
2019-02-04T03:58:24.963Z,99.90
2019-02-04T04:00:52.767Z,99.90
2019-02-04T04:03:20.481Z,99.90
2019-02-04T04:05:48.131Z,99.90
2019-02-04T04:08:15.814Z,99.90
2019-02-04T04:10:43.459Z,99.90
2019-02-04T04:13:11.090Z,99.90
2019-02-04T04:15:38.735Z,99.90
2019-02-04T04:18:15.525Z,99.90
2019-02-04T04:20:35.732Z,99.90
2019-02-04T04:23:03.367Z,99.90
2019-02-04T04:25:31.946Z,99.90
2019-02-04T04:27:59.747Z,99.90
2019-02-04T04:30:28.262Z,99.90
2019-02-04T04:32:56.343Z,99.90
2019-02-04T04:35:23.983Z,99.90
2019-02-04T04:37:51.887Z,99.90
2019-02-04T04:40:19.596Z,99.90
2019-02-04T04:42:48.206Z,99.90
2019-02-04T04:45:20.477Z,99.90
2019-02-04T04:47:48.687Z,99.90
2019-02-04T04:50:16.334Z,99.90
2019-02-04T04:52:49.802Z,99.90
2019-02-04T04:55:24.269Z,99.90
2019-02-04T04:57:52.047Z,99.90
2019-02-04T05:00:21.066Z,99.90
2019-02-04T05:02:48.695Z,99.90
2019-02-04T05:05:16.414Z,99.90
2019-02-04T05:07:44.143Z,99.90
2019-02-04T05:10:21.298Z,99.90
2019-02-04T05:12:48.935Z,99.90
2019-02-04T05:15:18.101Z,99.90
2019-02-04T05:17:45.804Z,99.90
2019-02-04T05:20:15.118Z,99.90
2019-02-04T05:22:43.669Z,99.90
2019-02-04T05:25:11.387Z,99.90
2019-02-04T05:27:39.018Z,99.90
2019-02-04T05:30:08.678Z,99.90
2019-02-04T05:32:38.373Z,99.90
2019-02-04T05:35:06.106Z,99.90
2019-02-04T05:37:33.740Z,99.90
2019-02-04T05:40:01.371Z,99.90
2019-02-04T05:42:29.979Z,99.90
2019-02-04T05:44:57.615Z,99.90
2019-02-04T05:47:25.259Z,99.90
2019-02-04T05:49:52.890Z,99.90
2019-02-04T05:52:20.567Z,99.90
2019-02-04T05:54:48.194Z,99.90
2019-02-04T05:57:15.842Z,99.90
2019-02-04T05:59:43.478Z,99.90
2019-02-04T06:02:11.194Z,99.90
2019-02-04T06:04:38.887Z,99.90
2019-02-04T06:07:06.559Z,99.90
2019-02-04T06:09:34.187Z,99.90
2019-02-04T06:12:01.835Z,99.90
2019-02-04T06:14:29.546Z,99.90
2019-02-04T06:16:57.194Z,99.90
2019-02-04T06:19:25.107Z,99.90
2019-02-04T06:21:52.750Z,99.90
2019-02-04T06:24:26.368Z,99.90
2019-02-04T06:26:54.012Z,99.90
2019-02-04T06:29:21.645Z,99.90
2019-02-04T06:31:49.286Z,99.90
2019-02-04T06:34:17.364Z,99.90
2019-02-04T06:36:45.018Z,99.90
2019-02-04T06:39:12.660Z,99.90
2019-02-04T06:41:40.293Z,99.90
2019-02-04T06:44:08.894Z,99.90
2019-02-04T06:46:36.543Z,99.90
2019-02-04T06:49:12.025Z,99.90
2019-02-04T06:51:33.614Z,99.90
2019-02-04T06:54:01.259Z,99.90
2019-02-04T06:56:28.907Z,99.90
2019-02-04T06:58:56.539Z,99.90
2019-02-04T07:01:24.175Z,99.90
2019-02-04T07:03:56.019Z,99.90
2019-02-04T07:06:24.135Z,99.90
2019-02-04T07:08:51.779Z,99.90
2019-02-04T07:11:19.411Z,99.90
2019-02-04T07:13:48.023Z,99.90
2019-02-04T07:16:15.663Z,99.90
2019-02-04T07:18:43.301Z,99.90
2019-02-04T07:21:10.931Z,99.90
2019-02-04T07:23:39.050Z,99.90
2019-02-04T07:26:06.682Z,99.90
2019-02-04T07:28:34.331Z,99.90
2019-02-04T07:31:02.058Z,99.90
2019-02-04T07:33:35.739Z,99.90
2019-02-04T07:36:03.651Z,99.90
2019-02-04T07:38:31.371Z,99.90
2019-02-04T07:40:59.074Z,99.90
2019-02-04T07:43:26.737Z,99.90
2019-02-04T07:45:54.427Z,99.90
2019-02-04T07:48:22.064Z,99.90
2019-02-04T07:50:49.714Z,99.90
2019-02-04T07:53:17.451Z,99.90
2019-02-04T07:55:45.094Z,99.90
2019-02-04T07:58:12.727Z,99.90
2019-02-04T08:00:40.369Z,99.90
2019-02-04T08:03:08.003Z,99.90
2019-02-04T08:05:35.650Z,99.90
2019-02-04T08:08:03.280Z,99.90
2019-02-04T08:10:30.928Z,99.90
2019-02-04T08:13:01.410Z,99.90
2019-02-04T08:15:29.671Z,99.90
2019-02-04T08:17:57.392Z,99.90
2019-02-04T08:20:25.490Z,99.90
2019-02-04T08:22:53.138Z,99.90
2019-02-04T08:25:20.844Z,99.90
2019-02-04T08:27:48.495Z,99.90
2019-02-04T08:30:18.038Z,99.90
2019-02-04T08:32:47.676Z,99.90
2019-02-04T08:35:15.374Z,99.90
2019-02-04T08:37:43.025Z,99.90
2019-02-04T08:40:12.271Z,99.90
2019-02-04T08:42:39.990Z,99.90
2019-02-04T08:45:08.691Z,99.90
2019-02-04T08:47:36.402Z,99.90
2019-02-04T08:52:31.406Z,99.90
2019-02-04T08:54:59.035Z,99.90
2019-02-04T08:57:26.694Z,99.90
2019-02-04T08:59:54.917Z,99.90
2019-02-04T09:02:22.686Z,99.90
2019-02-04T09:04:50.614Z,99.90
2019-02-04T09:07:18.238Z,99.90
2019-02-04T09:09:45.883Z,99.90
2019-02-04T09:12:13.882Z,99.90
2019-02-04T09:14:41.523Z,99.90
2019-02-04T09:17:09.151Z,99.90
2019-02-04T09:19:36.792Z,99.90
2019-02-04T09:22:04.796Z,99.90
2019-02-04T09:24:32.438Z,99.90
2019-02-04T09:27:00.069Z,99.90
2019-02-04T09:29:27.712Z,99.90
2019-02-04T09:31:55.361Z,99.90
2019-02-04T09:36:51.403Z,99.90
2019-02-04T09:39:19.519Z,99.90
2019-02-04T09:41:47.146Z,99.90
2019-02-04T09:44:14.785Z,99.90
2019-02-04T09:46:42.430Z,99.90
2019-02-04T09:49:10.131Z,99.90
2019-02-04T09:51:37.758Z,99.90
2019-02-04T09:54:05.468Z,99.90
2019-02-04T09:56:33.466Z,99.90
2019-02-04T09:59:01.118Z,99.90
2019-02-04T10:01:28.748Z,99.90
2019-02-04T10:03:56.379Z,99.90
2019-02-04T10:06:24.019Z,99.90
2019-02-04T10:08:51.650Z,99.90
2019-02-04T10:11:19.299Z,99.90
2019-02-04T10:13:47.105Z,99.90
2019-02-04T10:16:14.752Z,99.90
2019-02-04T10:18:42.375Z,99.90
2019-02-04T10:23:39.443Z,99.90
2019-02-04T10:31:01.913Z,99.90
2019-02-04T10:33:29.593Z,99.90
2019-02-04T10:35:57.301Z,99.90
2019-02-04T10:38:25.052Z,99.90
2019-02-04T10:40:52.730Z,99.90
2019-02-04T10:43:22.355Z,99.90
2019-02-04T10:45:50.274Z,99.90
2019-02-04T10:48:17.923Z,99.90
2019-02-04T10:50:47.034Z,99.90
2019-02-04T10:53:15.026Z,99.90
2019-02-04T10:55:42.776Z,99.90
2019-02-04T10:58:11.590Z,99.90
2019-02-04T11:00:39.322Z,99.90
2019-02-04T11:03:07.233Z,99.90
2019-02-04T11:10:34.029Z,99.90
2019-02-04T11:13:14.627Z,99.90
2019-02-04T11:18:10.475Z,99.90
2019-02-04T11:20:38.262Z,99.90
2019-02-04T11:23:07.479Z,99.90
2019-02-04T11:25:35.221Z,99.90
2019-02-04T11:28:02.946Z,99.90
2019-02-04T11:30:31.931Z,99.90
2019-02-04T11:32:59.593Z,99.90
2019-02-04T11:35:27.353Z,99.90
2019-02-04T11:40:26.801Z,99.90
2019-02-04T11:43:00.255Z,99.90
2019-02-04T11:45:28.431Z,99.90
2019-02-04T11:47:56.282Z,99.90
2019-02-04T11:50:23.959Z,99.90
2019-02-04T11:57:46.486Z,99.90
2019-02-04T12:02:41.571Z,99.90
2019-02-04T12:05:10.971Z,99.90
2019-02-04T12:07:38.611Z,99.90
2019-02-04T12:10:07.792Z,99.90
2019-02-04T12:12:41.305Z,99.90
2019-02-04T12:15:10.471Z,99.90
2019-02-04T12:20:07.729Z,99.90
2019-02-04T12:22:39.790Z,99.90
2019-02-04T12:25:08.887Z,99.90
2019-02-04T12:27:36.529Z,99.90
2019-02-04T12:30:05.705Z,99.90
2019-02-04T12:32:42.550Z,99.90
2019-02-04T12:35:11.150Z,98.50
2019-02-04T12:37:38.859Z,98.30
2019-02-04T12:40:08.037Z,97.30
2019-02-04T12:42:35.702Z,95.60
2019-02-04T12:45:04.599Z,93.60
2019-02-04T12:47:32.227Z,96.80
2019-02-04T12:49:59.862Z,98.90
2019-02-04T12:52:27.499Z,99.90
2019-02-04T12:54:55.146Z,99.90
2019-02-04T12:57:22.797Z,99.90
2019-02-04T13:02:17.835Z,97.20
2019-02-04T13:04:45.479Z,93.00
2019-02-04T13:07:13.115Z,88.70
2019-02-04T13:09:40.751Z,92.00
2019-02-04T13:12:09.131Z,88.90
2019-02-04T13:14:36.918Z,84.90
2019-02-04T13:19:31.925Z,80.00
2019-02-04T13:21:59.554Z,80.20
2019-02-04T13:26:54.555Z,79.90
2019-02-04T13:29:22.194Z,79.40
2019-02-04T13:31:49.827Z,78.80
2019-02-04T13:34:26.383Z,76.90
2019-02-04T13:36:54.067Z,82.50
2019-02-04T13:39:21.736Z,84.60
2019-02-04T13:41:49.366Z,81.50
2019-02-04T13:46:45.294Z,85.70
2019-02-04T13:49:12.959Z,83.20
2019-02-04T13:51:40.681Z,83.50
2019-02-04T13:54:08.296Z,86.40
2019-02-04T13:56:35.943Z,86.20
2019-02-04T13:59:03.640Z,92.40
2019-02-04T14:01:31.283Z,90.80
2019-02-04T14:03:58.910Z,83.50
2019-02-04T14:06:26.558Z,82.10
2019-02-04T14:08:54.194Z,82.10
2019-02-04T14:11:21.843Z,80.70
2019-02-04T14:13:49.471Z,77.00
2019-02-04T14:16:17.115Z,76.50
2019-02-04T14:18:44.743Z,84.40
2019-02-04T14:21:12.396Z,99.50
2019-02-04T14:26:07.634Z,77.50
2019-02-04T14:28:35.263Z,76.20
2019-02-04T14:31:02.906Z,78.40
2019-02-04T14:33:39.656Z,79.00
2019-02-04T14:36:07.366Z,79.40
2019-02-04T14:38:35.062Z,82.50
2019-02-04T14:41:02.713Z,81.50
2019-02-04T14:43:31.023Z,82.30
2019-02-04T14:46:15.278Z,81.80
2019-02-04T14:48:59.679Z,90.00
2019-02-04T14:51:34.901Z,86.20
2019-02-04T14:54:23.260Z,89.60
2019-02-04T14:56:58.250Z,87.20
2019-02-04T14:59:26.850Z,85.10
2019-02-04T15:01:58.924Z,85.80
2019-02-04T15:07:10.773Z,81.70
2019-02-04T15:09:39.938Z,80.60
2019-02-04T15:12:15.358Z,80.20
2019-02-04T15:14:47.475Z,82.00
2019-02-04T15:17:16.655Z,83.30
2019-02-04T15:19:48.833Z,87.10
2019-02-04T15:22:32.799Z,90.10
2019-02-04T15:25:08.600Z,90.50
2019-02-04T15:27:38.264Z,90.40
2019-02-04T15:30:10.611Z,90.60
2019-02-04T15:32:40.782Z,90.60
2019-02-04T15:35:09.949Z,91.20
2019-02-04T15:37:55.746Z,91.80
2019-02-04T15:40:34.167Z,93.30
2019-02-04T15:43:11.174Z,92.40
2019-02-04T15:45:40.347Z,91.70
2019-02-04T15:48:08.427Z,92.20
2019-02-04T15:50:43.830Z,93.60
2019-02-04T15:53:11.477Z,93.90
2019-02-04T15:55:40.060Z,95.00
2019-02-04T15:58:07.894Z,97.00
2019-02-04T16:00:35.531Z,99.90
2019-02-04T16:03:03.446Z,99.90
2019-02-04T16:05:31.074Z,99.90
2019-02-04T16:07:58.719Z,99.90
2019-02-04T16:10:26.347Z,99.90
2019-02-04T16:12:53.999Z,99.90
2019-02-04T16:15:21.698Z,99.90
2019-02-04T16:17:49.402Z,99.90
2019-02-04T16:20:19.048Z,99.90
2019-02-04T16:22:58.008Z,99.90
2019-02-04T16:25:16.127Z,99.90
2019-02-04T16:27:43.767Z,99.90
2019-02-04T16:30:12.943Z,99.90
2019-02-04T16:32:40.606Z,99.90
2019-02-04T16:37:35.611Z,99.90
2019-02-04T16:44:58.163Z,99.90
2019-02-04T16:47:25.795Z,99.90
2019-02-04T16:49:53.430Z,99.90
2019-02-04T16:52:21.063Z,99.90
2019-02-04T16:54:48.703Z,99.90
2019-02-04T16:57:16.334Z,99.90
2019-02-04T17:02:11.351Z,99.90
2019-02-04T17:04:38.991Z,99.90
2019-02-04T17:07:06.899Z,99.90
2019-02-04T17:09:34.539Z,99.90
2019-02-04T17:12:02.173Z,99.90
2019-02-04T17:14:39.110Z,99.90
2019-02-04T17:17:06.742Z,99.90
2019-02-04T17:19:34.373Z,99.90
2019-02-04T17:22:02.019Z,99.90
2019-02-04T17:24:29.658Z,99.90
2019-02-04T17:26:57.322Z,99.90
2019-02-04T17:29:25.787Z,99.90
2019-02-04T17:31:53.427Z,99.90
2019-02-04T17:34:23.063Z,99.90
2019-02-04T17:36:50.703Z,99.90
2019-02-04T17:39:18.332Z,99.90
2019-02-04T17:41:46.354Z,99.90
2019-02-04T17:44:13.978Z,99.90
2019-02-04T17:46:41.620Z,99.90
2019-02-04T17:49:09.252Z,99.90
2019-02-04T17:54:05.155Z,99.90
2019-02-04T17:56:33.311Z,99.90
2019-02-04T17:59:01.314Z,99.90
2019-02-04T18:01:28.961Z,99.90
2019-02-04T18:03:56.620Z,99.90
2019-02-04T18:06:24.321Z,99.90
2019-02-04T18:08:52.077Z,99.90
2019-02-04T18:11:19.719Z,99.90
2019-02-04T18:13:47.428Z,99.90
2019-02-04T18:16:15.242Z,99.90
2019-02-04T18:18:42.872Z,99.90
2019-02-04T18:21:10.578Z,99.90
2019-02-04T18:23:45.655Z,99.90
2019-02-04T18:26:07.579Z,99.90
2019-02-04T18:28:35.582Z,99.90
2019-02-04T18:31:03.335Z,99.90
2019-02-04T18:33:31.426Z,99.90
2019-02-04T18:35:59.093Z,99.90
2019-02-04T18:38:26.737Z,99.90
2019-02-04T18:40:54.734Z,99.90
2019-02-04T18:43:22.378Z,99.90
2019-02-04T18:45:50.006Z,99.90
2019-02-04T18:48:17.646Z,99.90
2019-02-04T18:50:45.750Z,99.90
2019-02-04T18:53:13.391Z,99.90
2019-02-04T18:55:41.023Z,99.90
2019-02-04T18:58:08.671Z,99.90
2019-02-04T19:00:36.307Z,99.90
2019-02-04T19:03:16.498Z,99.90
2019-02-04T19:05:34.387Z,99.90
2019-02-04T19:08:02.029Z,99.90
2019-02-04T19:10:29.667Z,99.90
2019-02-04T19:12:58.330Z,99.90
2019-02-04T19:15:27.499Z,99.90
2019-02-04T19:17:56.858Z,99.90
2019-02-04T19:20:24.499Z,99.90
2019-02-04T19:22:52.209Z,99.90
2019-02-04T19:25:21.115Z,99.90
2019-02-04T19:27:49.235Z,99.90
2019-02-04T19:30:21.363Z,99.90
2019-02-04T19:32:49.081Z,99.90
2019-02-04T19:35:17.326Z,99.90
2019-02-04T19:37:45.134Z,99.90
2019-02-04T19:40:14.146Z,99.90
2019-02-04T19:42:41.779Z,99.90
2019-02-04T19:45:14.322Z,99.90
2019-02-04T19:47:42.012Z,99.90
2019-02-04T19:50:11.375Z,99.90
2019-02-04T19:52:39.012Z,99.90
2019-02-04T19:55:10.946Z,99.90
2019-02-04T19:57:37.494Z,99.90
2019-02-04T20:00:12.903Z,99.90
2019-02-04T20:02:40.548Z,99.90
2019-02-04T20:05:09.911Z,99.90
2019-02-04T20:07:37.547Z,99.90
2019-02-04T20:10:06.454Z,99.90
2019-02-04T20:12:34.091Z,99.90
2019-02-04T20:15:01.735Z,99.90
2019-02-04T20:17:29.376Z,99.90
2019-02-04T20:19:57.029Z,99.90
2019-02-04T20:22:25.620Z,99.90
2019-02-04T20:24:53.263Z,99.90
2019-02-04T20:27:20.895Z,99.90
2019-02-04T20:29:48.547Z,99.90
2019-02-04T20:32:16.300Z,99.90
2019-02-04T20:34:43.949Z,99.90
2019-02-04T20:37:11.749Z,99.90
2019-02-04T20:39:39.399Z,99.90
2019-02-04T20:42:07.046Z,99.90
2019-02-04T20:44:34.711Z,99.90
2019-02-04T20:47:02.403Z,99.90
2019-02-04T20:49:30.062Z,99.90
2019-02-04T20:51:57.699Z,99.90
2019-02-04T20:54:25.366Z,99.90
2019-02-04T20:56:53.081Z,99.90
2019-02-04T20:59:20.766Z,99.90
2019-02-04T21:01:48.406Z,99.90
2019-02-04T21:04:16.129Z,99.90
2019-02-04T21:06:55.384Z,99.90
2019-02-04T21:09:13.131Z,99.90
2019-02-04T21:11:40.774Z,99.90
2019-02-04T21:14:08.407Z,99.90
2019-02-04T21:16:36.054Z,99.90
2019-02-04T21:19:03.705Z,99.90
2019-02-04T21:21:31.359Z,99.90
2019-02-04T21:23:58.995Z,99.90
2019-02-04T21:26:26.639Z,99.90
2019-02-04T21:28:54.266Z,99.90
2019-02-04T21:31:21.916Z,99.90
2019-02-04T21:33:49.550Z,99.90
2019-02-04T21:36:17.195Z,99.90
2019-02-04T21:38:44.822Z,99.90
2019-02-04T21:41:12.475Z,99.90
2019-02-04T21:43:40.106Z,99.90
2019-02-04T21:46:07.751Z,99.90
2019-02-04T21:48:35.379Z,99.90
2019-02-04T21:51:03.212Z,99.90
2019-02-04T21:53:30.854Z,99.90
2019-02-04T21:55:58.502Z,99.90
2019-02-04T21:58:26.139Z,99.90
2019-02-04T22:00:53.775Z,99.90
2019-02-04T22:03:21.427Z,99.90
2019-02-04T22:05:49.054Z,99.90
2019-02-04T22:08:16.702Z,99.90
2019-02-04T22:10:44.335Z,99.90
2019-02-04T22:13:11.977Z,99.90
2019-02-04T22:15:39.986Z,99.90
2019-02-04T22:18:07.698Z,99.90
2019-02-04T22:20:35.782Z,99.90
2019-02-04T22:23:03.607Z,99.90
2019-02-04T22:25:31.309Z,99.90
2019-02-04T22:27:58.941Z,99.90
2019-02-04T22:30:27.641Z,99.90
2019-02-04T22:32:55.285Z,99.90
2019-02-04T22:35:22.910Z,99.90
2019-02-04T22:37:50.562Z,99.90
2019-02-04T22:40:19.631Z,99.90
2019-02-04T22:42:48.265Z,99.90
2019-02-04T22:45:16.562Z,99.90
2019-02-04T22:47:44.208Z,99.90
2019-02-04T22:50:13.611Z,99.90
2019-02-04T22:52:44.338Z,99.90
2019-02-04T22:55:12.414Z,99.90
2019-02-04T22:57:40.071Z,99.90
2019-02-04T23:00:15.095Z,99.90
2019-02-04T23:02:42.745Z,99.90
2019-02-04T23:05:10.370Z,99.90
2019-02-04T23:07:38.074Z,99.90
2019-02-04T23:10:07.869Z,99.90
2019-02-04T23:12:35.497Z,99.90
2019-02-04T23:15:04.612Z,99.90
2019-02-04T23:17:32.250Z,99.90
2019-02-04T23:19:59.891Z,99.90
2019-02-04T23:22:28.459Z,99.90
2019-02-04T23:24:56.098Z,99.90
2019-02-04T23:27:23.730Z,99.90
2019-02-04T23:29:51.370Z,99.90
2019-02-04T23:32:19.008Z,99.90
2019-02-04T23:34:46.650Z,99.90
2019-02-04T23:37:14.283Z,99.90
2019-02-04T23:39:41.926Z,99.90
2019-02-04T23:42:09.567Z,99.90
2019-02-04T23:44:37.222Z,99.90
2019-02-04T23:47:04.859Z,99.90
2019-02-04T23:49:32.512Z,99.90
2019-02-04T23:52:00.167Z,99.90
2019-02-04T23:54:27.810Z,99.90
2019-02-04T23:56:55.441Z,99.90
2019-02-04T23:59:23.090Z,99.90
